createdAt,value
2022-09-05T00:02:02.735Z,98931.28
2022-09-05T00:04:56.871Z,98928.56
2022-09-05T00:07:59.427Z,98931.13
2022-09-05T00:11:18.138Z,98925.28
2022-09-05T00:13:38.479Z,98936.72
2022-09-05T00:16:13.602Z,98924.56
2022-09-05T00:24:21.957Z,98925.41
2022-09-05T00:24:25.456Z,98917.69
2022-09-05T00:25:30.448Z,98927.47
2022-09-05T00:28:26.069Z,98918.28
2022-09-05T00:31:57.459Z,98916.72
2022-09-05T00:35:13.969Z,98907.31
2022-09-05T00:37:47.318Z,98900.56
2022-09-05T00:40:19.368Z,98902.03
2022-09-05T00:42:53.129Z,98905.81
2022-09-05T00:46:10.322Z,98904.22
2022-09-05T00:49:02.742Z,98913.88
2022-09-05T00:51:37.326Z,98913.56
2022-09-05T00:54:41.728Z,98907.91
2022-09-05T00:57:23.914Z,98906.06
2022-09-05T01:00:10.034Z,98910.56
2022-09-05T01:03:20.997Z,98906.25
2022-09-05T01:06:02.275Z,98905.28
2022-09-05T01:09:08.271Z,98912.53
2022-09-05T01:12:00.119Z,98916.41
2022-09-05T01:15:21.303Z,98915.44
2022-09-05T01:18:00.437Z,98916.06
2022-09-05T01:20:44.388Z,98914.72
2022-09-05T01:23:49.741Z,98915.31
2022-09-05T01:26:42.648Z,98916.75
2022-09-05T01:29:25.004Z,98912.78
2022-09-05T01:32:10.447Z,98916.06
2022-09-05T01:35:10.681Z,98917.03
2022-09-05T01:37:50.653Z,98921.00
2022-09-05T01:40:36.558Z,98916.69
2022-09-05T01:43:52.685Z,98915.00
2022-09-05T01:46:27.795Z,98923.91
2022-09-05T01:49:15.671Z,98916.63
2022-09-05T01:52:28.611Z,98912.31
2022-09-05T01:55:32.228Z,98905.34
2022-09-05T01:58:20.174Z,98910.25
2022-09-05T02:01:26.600Z,98909.41
2022-09-05T02:04:17.502Z,98910.47
2022-09-05T02:07:19.245Z,98904.25
2022-09-05T02:10:49.970Z,98910.16
2022-09-05T02:13:35.991Z,98910.13
2022-09-05T02:16:17.570Z,98907.00
2022-09-05T02:19:19.210Z,98912.06
2022-09-05T02:22:11.000Z,98906.53
2022-09-05T02:24:47.766Z,98904.94
2022-09-05T02:28:03.934Z,98910.84
2022-09-05T02:30:29.839Z,98911.84
2022-09-05T02:33:34.452Z,98907.59
2022-09-05T02:37:01.051Z,98901.00
2022-09-05T02:45:02.776Z,98897.72
2022-09-05T02:45:08.710Z,98901.09
2022-09-05T02:46:07.356Z,98904.47
2022-09-05T02:48:57.193Z,98906.75
2022-09-05T02:57:30.072Z,98913.38
2022-09-05T02:57:42.313Z,98912.47
2022-09-05T02:58:07.489Z,98906.44
2022-09-05T03:00:51.095Z,98904.19
2022-09-05T03:03:39.245Z,98915.38
2022-09-05T03:06:35.016Z,98910.84
2022-09-05T03:09:16.749Z,98907.06
2022-09-05T03:12:21.730Z,98899.25
2022-09-05T03:15:46.182Z,98900.66
2022-09-05T03:19:25.452Z,98900.41
2022-09-05T03:22:36.856Z,98904.69
2022-09-05T03:25:48.558Z,98901.56
2022-09-05T03:28:51.749Z,98908.44
2022-09-05T03:31:56.846Z,98898.47
2022-09-05T03:34:52.446Z,98907.25
2022-09-05T03:38:13.586Z,98903.22
2022-09-05T03:41:01.086Z,98912.72
2022-09-05T03:43:58.100Z,98914.97
2022-09-05T03:46:38.459Z,98913.47
2022-09-05T03:52:27.410Z,98911.06
2022-09-05T03:57:07.615Z,98915.22
2022-09-05T03:57:25.337Z,98919.00
2022-09-05T03:59:25.242Z,98907.56
2022-09-05T04:07:36.693Z,98914.66
2022-09-05T04:08:14.411Z,98914.44
2022-09-05T04:08:42.610Z,98908.66
2022-09-05T04:11:21.199Z,98919.22
2022-09-05T04:14:30.198Z,98915.00
2022-09-05T04:17:10.566Z,98912.06
2022-09-05T04:20:20.649Z,98912.50
2022-09-05T04:23:05.938Z,98908.13
2022-09-05T04:26:12.145Z,98913.81
2022-09-05T04:28:55.445Z,98911.78
2022-09-05T04:31:43.278Z,98925.22
2022-09-05T04:34:43.515Z,98919.72
2022-09-05T04:37:37.151Z,98925.97
2022-09-05T04:40:46.625Z,98921.34
2022-09-05T04:43:18.652Z,98922.72
2022-09-05T04:46:18.275Z,98927.53
2022-09-05T04:49:21.703Z,98919.44
2022-09-05T04:52:01.278Z,98931.06
2022-09-05T04:54:36.912Z,98934.00
2022-09-05T04:57:54.466Z,98929.47
2022-09-05T05:06:02.137Z,98936.03
2022-09-05T05:06:08.546Z,98933.16
2022-09-05T05:06:47.915Z,98939.09
2022-09-05T05:09:31.045Z,98940.97
2022-09-05T05:17:54.098Z,98940.53
2022-09-05T05:18:14.078Z,98939.75
2022-09-05T05:18:39.311Z,98943.75
2022-09-05T05:21:26.073Z,98954.34
2022-09-05T05:24:00.176Z,98937.84
2022-09-05T05:26:45.489Z,98943.34
2022-09-05T05:30:06.502Z,98938.25
2022-09-05T05:32:46.070Z,98935.81
2022-09-05T05:35:31.489Z,98943.53
2022-09-05T05:38:25.453Z,98938.47
2022-09-05T05:41:05.875Z,98939.78
2022-09-05T05:43:46.241Z,98945.47
2022-09-05T05:46:28.483Z,98944.91
2022-09-05T05:49:14.804Z,98949.38
2022-09-05T05:52:13.016Z,98940.19
2022-09-05T05:55:50.734Z,98948.22
2022-09-05T05:58:45.317Z,98950.25
2022-09-05T06:01:50.141Z,98958.38
2022-09-05T06:05:11.777Z,98961.00
2022-09-05T06:10:30.360Z,98966.31
2022-09-05T06:15:00.624Z,98961.41
2022-09-05T06:15:23.287Z,98967.59
2022-09-05T06:18:20.528Z,98957.78
2022-09-05T06:22:09.314Z,98961.16
2022-09-05T06:24:46.051Z,98956.03
2022-09-05T06:28:01.361Z,98957.88
2022-09-05T06:30:45.415Z,98951.38
2022-09-05T06:33:30.146Z,98960.69
2022-09-05T06:36:43.925Z,98962.41
2022-09-05T06:39:51.811Z,98958.78
2022-09-05T06:42:52.056Z,98954.72
2022-09-05T06:45:43.855Z,98958.97
2022-09-05T06:48:44.603Z,98955.13
2022-09-05T06:51:28.156Z,98960.44
2022-09-05T06:54:25.555Z,98954.53
2022-09-05T06:57:25.867Z,98954.03
2022-09-05T07:00:05.759Z,98955.22
2022-09-05T07:02:58.978Z,98958.59
2022-09-05T07:05:45.337Z,98950.16
2022-09-05T07:08:35.808Z,98961.19
2022-09-05T07:11:34.164Z,98954.41
2022-09-05T07:14:20.223Z,98951.50
2022-09-05T07:17:11.282Z,98948.28
2022-09-05T07:19:54.787Z,98948.59
2022-09-05T07:22:48.944Z,98956.94
2022-09-05T07:25:27.171Z,98946.84
2022-09-05T07:28:28.925Z,98948.16
2022-09-05T07:31:03.924Z,98956.25
2022-09-05T07:33:31.912Z,98954.56
2022-09-05T07:36:30.914Z,98949.00
2022-09-05T07:39:25.210Z,98951.25
2022-09-05T07:41:56.722Z,98959.84
2022-09-05T07:44:25.150Z,98955.56
2022-09-05T07:47:23.952Z,98962.19
2022-09-05T07:50:23.395Z,98956.03
2022-09-05T07:56:48.203Z,98958.97
2022-09-05T07:56:59.651Z,98956.16
2022-09-05T07:58:32.646Z,98946.47
2022-09-05T08:00:59.851Z,98955.88
2022-09-05T08:03:29.233Z,98952.66
2022-09-05T08:06:04.864Z,98944.63
2022-09-05T08:09:21.453Z,98950.06
2022-09-05T08:11:49.296Z,98944.84
2022-09-05T08:14:44.517Z,98940.03
2022-09-05T08:17:30.286Z,98947.72
2022-09-05T08:20:09.203Z,98947.22
2022-09-05T08:23:29.201Z,98939.88
2022-09-05T08:26:15.056Z,98935.75
2022-09-05T08:29:03.561Z,98932.16
2022-09-05T08:31:46.374Z,98937.66
2022-09-05T08:34:31.475Z,98940.66
2022-09-05T08:37:21.053Z,98935.00
2022-09-05T08:40:07.220Z,98927.97
2022-09-05T08:44:27.382Z,98928.28
2022-09-05T08:46:44.901Z,98921.31
2022-09-05T08:50:08.032Z,98918.84
2022-09-05T08:52:42.221Z,98913.94
2022-09-05T08:55:38.597Z,98917.81
2022-09-05T08:58:28.718Z,98918.25
2022-09-05T09:02:45.079Z,98909.09
2022-09-05T09:06:12.683Z,98905.84
2022-09-05T09:09:05.807Z,98904.44
2022-09-05T09:11:46.727Z,98902.78
2022-09-05T09:14:55.225Z,98900.16
2022-09-05T09:17:49.308Z,98907.00
2022-09-05T09:20:36.477Z,98903.34
2022-09-05T09:23:31.760Z,98897.66
2022-09-05T09:26:15.642Z,98902.69
2022-09-05T09:28:51.968Z,98899.91
2022-09-05T09:32:20.417Z,98904.56
2022-09-05T09:35:19.982Z,98890.06
2022-09-05T09:38:22.119Z,98885.41
2022-09-05T09:41:19.269Z,98887.75
2022-09-05T09:44:26.430Z,98887.41
2022-09-05T09:46:53.754Z,98884.22
2022-09-05T09:50:10.958Z,98886.88
2022-09-05T09:53:19.288Z,98889.75
2022-09-05T09:56:27.303Z,98880.19
2022-09-05T09:59:14.754Z,98873.28
2022-09-05T10:03:40.963Z,98870.22
2022-09-05T10:10:39.642Z,98867.88
2022-09-05T10:10:46.650Z,98869.44
2022-09-05T10:12:24.039Z,98868.56
2022-09-05T10:15:31.312Z,98867.41
2022-09-05T10:18:32.486Z,98861.34
2022-09-05T10:21:16.209Z,98864.03
2022-09-05T10:24:24.643Z,98857.50
2022-09-05T10:27:19.798Z,98853.34
2022-09-05T10:29:53.285Z,98854.66
2022-09-05T10:35:10.386Z,98849.44
2022-09-05T10:35:40.512Z,98848.94
2022-09-05T10:38:10.898Z,98848.69
2022-09-05T10:40:46.400Z,98847.63
2022-09-05T10:43:33.604Z,98846.41
2022-09-05T10:46:50.835Z,98847.16
2022-09-05T10:49:24.773Z,98842.03
2022-09-05T10:52:31.899Z,98845.44
2022-09-05T10:55:22.018Z,98838.84
2022-09-05T10:58:47.067Z,98833.69
2022-09-05T11:02:27.979Z,98838.31
2022-09-05T11:04:51.001Z,98839.63
2022-09-05T11:07:38.510Z,98827.81
2022-09-05T11:10:17.256Z,98827.25
2022-09-05T11:13:06.255Z,98818.22
2022-09-05T11:16:06.076Z,98817.91
2022-09-05T11:19:02.093Z,98813.28
2022-09-05T11:22:02.194Z,98808.94
2022-09-05T11:24:59.954Z,98806.63
2022-09-05T11:27:41.439Z,98799.69
2022-09-05T11:30:29.300Z,98800.06
2022-09-05T11:39:48.130Z,98786.69
2022-09-05T11:40:04.354Z,98801.88
2022-09-05T11:40:31.265Z,98802.34
2022-09-05T11:42:56.945Z,98787.00
2022-09-05T11:46:15.434Z,98789.88
2022-09-05T11:49:15.182Z,98784.75
2022-09-05T11:52:13.815Z,98788.91
2022-09-05T11:55:21.438Z,98778.31
2022-09-05T11:58:43.985Z,98786.22
2022-09-05T12:01:43.249Z,98777.16
2022-09-05T12:04:17.765Z,98780.84
2022-09-05T12:06:56.684Z,98784.84
2022-09-05T12:09:37.850Z,98778.31
2022-09-05T12:13:07.543Z,98775.50
2022-09-05T12:15:34.565Z,98777.50
2022-09-05T12:18:19.622Z,98771.53
2022-09-05T12:21:19.899Z,98756.50
2022-09-05T12:25:16.471Z,98770.09
2022-09-05T12:30:03.377Z,98774.22
2022-09-05T12:33:56.643Z,98765.91
2022-09-05T12:36:07.009Z,98772.75
2022-09-05T12:41:33.272Z,98764.69
2022-09-05T12:41:41.715Z,98768.63
2022-09-05T12:42:56.313Z,98756.66
2022-09-05T12:45:50.137Z,98761.53
2022-09-05T12:48:41.406Z,98755.47
2022-09-05T12:51:45.431Z,98754.47
2022-09-05T12:54:27.864Z,98762.38
2022-09-05T12:58:24.687Z,98753.22
2022-09-05T13:03:14.501Z,98752.41
2022-09-05T13:03:28.694Z,98762.59
2022-09-05T13:06:08.621Z,98763.41
2022-09-05T13:09:00.071Z,98758.63
2022-09-05T13:14:52.572Z,98761.09
2022-09-05T13:15:02.618Z,98761.06
2022-09-05T13:17:16.562Z,98750.66
2022-09-05T13:19:52.219Z,98744.81
2022-09-05T13:22:24.251Z,98746.91
2022-09-05T13:25:08.778Z,98745.00
2022-09-05T13:27:46.466Z,98741.28
2022-09-05T13:36:28.193Z,98746.06
2022-09-05T13:37:59.206Z,98727.03
2022-09-05T13:38:15.759Z,98736.44
2022-09-05T13:39:28.244Z,98726.22
2022-09-05T13:42:03.355Z,98724.25
2022-09-05T13:44:40.801Z,98724.50
2022-09-05T13:47:29.650Z,98719.31
2022-09-05T13:50:31.605Z,98714.94
2022-09-05T13:53:26.163Z,98713.69
2022-09-05T13:56:03.485Z,98709.13
2022-09-05T13:58:56.621Z,98710.59
2022-09-05T14:02:25.116Z,98704.94
2022-09-05T14:05:20.060Z,98699.75
2022-09-05T14:08:11.263Z,98701.63
2022-09-05T14:11:02.082Z,98696.81
2022-09-05T14:14:11.090Z,98693.72
2022-09-05T14:16:54.626Z,98692.69
2022-09-05T14:19:43.501Z,98689.56
2022-09-05T14:22:30.898Z,98686.63
2022-09-05T14:25:00.204Z,98692.50
2022-09-05T14:27:31.882Z,98687.50
2022-09-05T14:31:08.187Z,98690.44
2022-09-05T14:37:50.094Z,98676.91
2022-09-05T14:37:55.239Z,98674.41
2022-09-05T14:40:29.935Z,98667.50
2022-09-05T14:43:26.774Z,98669.81
2022-09-05T14:46:34.947Z,98666.72
2022-09-05T14:49:39.962Z,98662.75
2022-09-05T14:52:43.356Z,98666.28
2022-09-05T15:02:43.687Z,98662.91
2022-09-05T15:02:58.670Z,98665.00
2022-09-05T15:06:39.148Z,98661.22
2022-09-05T15:12:11.153Z,98658.06
2022-09-05T15:12:33.296Z,98653.31
2022-09-05T15:15:03.729Z,98652.84
2022-09-05T15:17:31.142Z,98652.44
2022-09-05T15:20:08.750Z,98652.22
2022-09-05T15:22:41.608Z,98649.13
2022-09-05T15:25:19.899Z,98645.41
2022-09-05T15:27:49.410Z,98649.34
2022-09-05T15:30:28.080Z,98648.31
2022-09-05T15:33:17.774Z,98644.41
2022-09-05T15:35:52.051Z,98638.81
2022-09-05T15:38:30.174Z,98643.00
2022-09-05T15:41:17.230Z,98647.56
2022-09-05T15:43:58.191Z,98640.72
2022-09-05T15:46:38.830Z,98640.06
2022-09-05T15:49:31.401Z,98640.94
2022-09-05T15:52:04.814Z,98642.16
2022-09-05T15:54:40.635Z,98632.63
2022-09-05T15:57:17.761Z,98634.69
2022-09-05T15:59:51.796Z,98631.38
2022-09-05T16:02:26.607Z,98633.00
2022-09-05T16:10:33.646Z,98637.59
2022-09-05T16:10:50.408Z,98633.44
2022-09-05T16:14:46.508Z,98629.06
2022-09-05T16:23:21.010Z,98629.06
2022-09-05T16:23:25.483Z,98624.06
2022-09-05T16:24:06.131Z,98620.97
2022-09-05T16:26:41.914Z,98621.38
2022-09-05T16:29:30.894Z,98614.09
2022-09-05T16:32:02.067Z,98615.34
2022-09-05T16:35:07.762Z,98612.66
2022-09-05T16:37:54.926Z,98604.97
2022-09-05T16:40:34.187Z,98607.03
2022-09-05T16:43:16.258Z,98612.63
2022-09-05T16:46:05.484Z,98610.94
2022-09-05T16:49:13.339Z,98604.91
2022-09-05T16:51:58.317Z,98601.59
2022-09-05T16:54:45.933Z,98601.81
2022-09-05T16:57:22.431Z,98599.28
2022-09-05T16:59:50.817Z,98597.00
2022-09-05T17:02:30.230Z,98595.94
2022-09-05T17:05:09.541Z,98594.81
2022-09-05T17:08:06.906Z,98602.88
2022-09-05T17:10:50.695Z,98597.03
2022-09-05T17:13:56.865Z,98598.81
2022-09-05T17:16:41.708Z,98592.72
2022-09-05T17:19:22.005Z,98595.56
2022-09-05T17:29:17.192Z,98589.88
2022-09-05T17:29:33.772Z,98585.88
2022-09-05T17:29:45.686Z,98582.47
2022-09-05T17:31:53.654Z,98585.06
2022-09-05T17:35:17.744Z,98587.19
2022-09-05T17:38:33.384Z,98582.50
2022-09-05T17:41:53.923Z,98584.03
2022-09-05T17:44:36.335Z,98588.31
2022-09-05T17:47:25.897Z,98596.50
2022-09-05T17:50:20.022Z,98608.09
2022-09-05T17:53:26.729Z,98605.94
2022-09-05T17:55:54.755Z,98606.44
2022-09-05T17:58:49.642Z,98603.66
2022-09-05T18:01:28.745Z,98605.06
2022-09-05T18:04:16.475Z,98604.53
2022-09-05T18:06:59.450Z,98611.28
2022-09-05T18:09:48.111Z,98611.06
2022-09-05T18:13:14.254Z,98604.31
2022-09-05T18:15:35.598Z,98604.75
2022-09-05T18:18:33.305Z,98600.09
2022-09-05T18:21:21.578Z,98602.91
2022-09-05T18:24:03.846Z,98611.59
2022-09-05T18:26:42.671Z,98610.72
2022-09-05T18:29:58.358Z,98616.84
2022-09-05T18:32:53.809Z,98629.53
2022-09-05T18:35:36.906Z,98626.38
2022-09-05T18:38:04.635Z,98624.25
2022-09-05T18:40:55.992Z,98628.63
2022-09-05T18:43:36.891Z,98630.63
2022-09-05T18:46:40.816Z,98633.66
2022-09-05T18:50:25.216Z,98630.72
2022-09-05T18:52:25.131Z,98635.59
2022-09-05T18:55:49.407Z,98637.78
2022-09-05T18:57:58.025Z,98638.16
2022-09-05T19:00:48.765Z,98638.22
2022-09-05T19:03:28.618Z,98641.22
2022-09-05T19:06:35.589Z,98640.56
2022-09-05T19:09:03.773Z,98640.97
2022-09-05T19:11:52.991Z,98642.28
2022-09-05T19:14:42.838Z,98629.22
2022-09-05T19:17:36.850Z,98628.06
2022-09-05T19:20:31.743Z,98622.69
2022-09-05T19:23:13.522Z,98625.25
2022-09-05T19:26:09.941Z,98620.38
2022-09-05T19:32:59.820Z,98620.56
2022-09-05T19:37:06.084Z,98615.81
2022-09-05T19:37:10.685Z,98618.00
2022-09-05T19:37:29.437Z,98616.16
2022-09-05T19:47:25.611Z,98615.16
2022-09-05T19:47:35.918Z,98612.59
2022-09-05T19:47:51.479Z,98608.13
2022-09-05T19:48:34.250Z,98611.16
2022-09-05T19:51:17.598Z,98612.59
2022-09-05T19:54:05.411Z,98606.53
2022-09-05T19:56:44.143Z,98609.16
2022-09-05T19:59:24.594Z,98603.25
2022-09-05T20:01:52.983Z,98598.03
2022-09-05T20:04:21.610Z,98604.31
2022-09-05T20:06:50.007Z,98597.22
2022-09-05T20:09:23.816Z,98597.34
2022-09-05T20:11:59.711Z,98599.13
2022-09-05T20:14:35.523Z,98605.13
2022-09-05T20:17:19.122Z,98607.84
2022-09-05T20:19:45.832Z,98612.47
2022-09-05T20:22:48.088Z,98610.13
2022-09-05T20:25:44.015Z,98612.94
2022-09-05T20:28:27.451Z,98613.41
2022-09-05T20:30:59.659Z,98616.75
2022-09-05T20:33:47.975Z,98608.75
2022-09-05T20:42:35.549Z,98608.38
2022-09-05T20:43:18.211Z,98623.94
2022-09-05T20:43:35.548Z,98624.44
2022-09-05T20:48:01.946Z,98622.56
2022-09-05T20:54:08.016Z,98617.13
2022-09-05T20:54:16.037Z,98611.78
2022-09-05T20:54:34.866Z,98608.75
2022-09-05T20:57:28.819Z,98616.47
2022-09-05T20:59:56.938Z,98616.69
2022-09-05T21:02:29.452Z,98612.78
2022-09-05T21:05:10.111Z,98601.56
2022-09-05T21:08:02.465Z,98600.66
2022-09-05T21:10:54.948Z,98599.28
2022-09-05T21:13:34.275Z,98602.97
2022-09-05T21:16:01.727Z,98606.34
2022-09-05T21:18:33.664Z,98615.91
2022-09-05T21:23:32.859Z,98613.00
2022-09-05T21:26:02.285Z,98609.22
2022-09-05T21:28:39.586Z,98610.91
2022-09-05T21:31:12.877Z,98609.22
2022-09-05T21:33:45.144Z,98606.97
2022-09-05T21:36:15.273Z,98603.31
2022-09-05T21:38:43.428Z,98602.19
2022-09-05T21:41:14.348Z,98595.47
2022-09-05T21:47:34.191Z,98593.94
2022-09-05T21:47:37.457Z,98593.31
2022-09-05T21:49:18.559Z,98598.97
2022-09-05T21:51:53.195Z,98599.84
2022-09-05T21:59:13.765Z,98599.28
2022-09-05T21:59:30.399Z,98600.94
2022-09-05T22:00:12.795Z,98607.28
2022-09-05T22:02:39.456Z,98605.97
2022-09-05T22:05:06.363Z,98597.84
2022-09-05T22:07:35.633Z,98592.00
2022-09-05T22:10:06.296Z,98591.88
2022-09-05T22:12:35.582Z,98597.50
2022-09-05T22:15:26.525Z,98599.09
2022-09-05T22:18:04.948Z,98598.28
2022-09-05T22:20:45.428Z,98585.50
2022-09-05T22:23:12.786Z,98579.75
2022-09-05T22:25:39.716Z,98581.84
2022-09-05T22:28:27.386Z,98566.19
2022-09-05T22:31:07.611Z,98572.81
2022-09-05T22:33:35.067Z,98571.53
2022-09-05T22:36:01.919Z,98564.44
2022-09-05T22:38:28.450Z,98566.97
2022-09-05T22:40:58.001Z,98568.13
2022-09-05T22:43:25.083Z,98571.53
2022-09-05T22:45:59.144Z,98558.06
2022-09-05T22:48:25.753Z,98560.72
2022-09-05T22:50:52.330Z,98564.94
2022-09-05T22:53:18.827Z,98560.56
2022-09-05T22:55:45.340Z,98557.19
2022-09-05T22:58:14.800Z,98553.03
2022-09-05T23:00:41.849Z,98558.25
2022-09-05T23:03:08.507Z,98560.38
2022-09-05T23:05:35.860Z,98561.78
2022-09-05T23:08:05.096Z,98552.41
2022-09-05T23:10:32.823Z,98560.78
2022-09-05T23:13:04.036Z,98557.03
2022-09-05T23:15:30.587Z,98560.38
2022-09-05T23:18:02.722Z,98569.91
2022-09-05T23:20:31.916Z,98571.16
2022-09-05T23:23:05.685Z,98573.41
2022-09-05T23:25:34.991Z,98575.66
2022-09-05T23:28:07.980Z,98577.19
2022-09-05T23:30:39.224Z,98577.19
2022-09-05T23:33:08.182Z,98583.34
2022-09-05T23:35:36.463Z,98581.66
2022-09-05T23:38:07.479Z,98580.41
2022-09-05T23:40:33.983Z,98580.94
2022-09-05T23:43:01.214Z,98588.94
2022-09-05T23:45:30.289Z,98581.50
2022-09-05T23:47:58.381Z,98581.19
2022-09-05T23:50:27.172Z,98578.53
2022-09-05T23:52:53.743Z,98572.66
2022-09-05T23:55:23.245Z,98565.13
2022-09-05T23:57:49.772Z,98571.97
